createdAt,value
2023-03-23T00:02:21.365Z,100026.39
2023-03-23T00:04:51.810Z,100020.54
2023-03-23T00:07:22.411Z,100020.96
2023-03-23T00:09:52.872Z,100017.36
2023-03-23T00:12:23.133Z,100010.50
2023-03-23T00:14:53.650Z,100011.45
2023-03-23T00:17:24.204Z,100014.39
2023-03-23T00:19:54.723Z,100010.01
2023-03-23T00:22:25.261Z,100008.64
2023-03-23T00:24:55.800Z,100009.57
2023-03-23T00:27:26.134Z,100006.87
2023-03-23T00:29:56.217Z,100010.72
2023-03-23T00:32:26.787Z,100001.87
2023-03-23T00:34:57.244Z,100001.69
2023-03-23T00:37:27.777Z,99997.34
2023-03-23T00:39:58.261Z,99992.49
2023-03-23T00:42:28.497Z,100004.00
2023-03-23T00:44:58.988Z,100001.24
2023-03-23T00:47:29.582Z,100002.79
2023-03-23T00:49:59.991Z,100007.16
2023-03-23T00:52:30.540Z,100005.78
2023-03-23T00:55:01.167Z,99998.57
2023-03-23T00:57:31.672Z,99998.68
2023-03-23T01:00:05.494Z,99994.69
2023-03-23T01:02:32.630Z,99989.25
2023-03-23T01:05:03.128Z,99999.47
2023-03-23T01:07:33.658Z,100013.29
2023-03-23T01:10:04.171Z,100000.79
2023-03-23T01:12:34.743Z,100004.19
2023-03-23T01:15:05.218Z,99994.18
2023-03-23T01:17:35.827Z,99994.23
2023-03-23T01:20:06.260Z,99996.31
2023-03-23T01:22:36.857Z,99979.12
2023-03-23T01:25:07.027Z,99977.10
2023-03-23T01:27:37.629Z,99978.77
2023-03-23T01:30:08.057Z,99970.24
2023-03-23T01:32:38.705Z,99971.34
2023-03-23T01:35:09.092Z,99968.11
2023-03-23T01:37:39.631Z,99958.13
2023-03-23T01:40:10.157Z,99956.22
2023-03-23T01:42:40.695Z,99958.77
2023-03-23T01:45:11.173Z,99965.69
2023-03-23T01:47:41.736Z,99952.41
2023-03-23T01:50:12.218Z,99945.16
2023-03-23T01:52:42.748Z,99943.04
2023-03-23T01:55:13.253Z,99943.06
2023-03-23T01:57:43.786Z,99953.42
2023-03-23T02:00:14.296Z,99946.56
2023-03-23T02:02:44.958Z,99940.98
2023-03-23T02:05:15.327Z,99947.19
2023-03-23T02:07:46.102Z,99944.20
2023-03-23T02:10:16.342Z,99924.75
2023-03-23T02:12:46.887Z,99906.18
2023-03-23T02:15:17.378Z,99886.00
2023-03-23T02:17:48.010Z,99850.65
2023-03-23T02:20:18.549Z,99859.65
2023-03-23T02:22:49.004Z,99860.88
2023-03-23T02:25:19.519Z,99884.28
2023-03-23T02:27:50.071Z,99896.21
2023-03-23T02:30:20.598Z,99889.27
2023-03-23T02:32:51.158Z,99894.35
2023-03-23T02:35:21.664Z,99884.03
2023-03-23T02:37:52.210Z,99887.97
2023-03-23T02:40:22.696Z,99885.13
2023-03-23T02:42:53.233Z,99877.63
2023-03-23T02:45:23.736Z,99877.46
2023-03-23T02:47:54.468Z,99880.18
2023-03-23T02:50:24.428Z,99880.81
2023-03-23T02:52:55.019Z,99866.73
2023-03-23T02:55:25.472Z,99865.94
2023-03-23T02:57:55.983Z,99874.56
2023-03-23T03:00:26.590Z,99863.15
2023-03-23T03:02:57.053Z,99847.93
2023-03-23T03:05:27.520Z,99864.03
2023-03-23T03:07:58.056Z,99873.12
2023-03-23T03:10:28.565Z,99870.18
2023-03-23T03:12:59.150Z,99870.08
2023-03-23T03:15:29.590Z,99863.93
2023-03-23T03:18:00.129Z,99862.85
2023-03-23T03:20:30.609Z,99870.72
2023-03-23T03:23:01.142Z,99866.13
2023-03-23T03:25:31.624Z,99866.77
2023-03-23T03:28:03.904Z,99864.54
2023-03-23T03:30:32.633Z,99865.88
2023-03-23T03:33:03.187Z,99866.54
2023-03-23T03:35:33.718Z,99860.50
2023-03-23T03:38:04.195Z,99869.16
2023-03-23T03:40:34.679Z,99870.74
2023-03-23T03:43:05.193Z,99865.31
2023-03-23T03:45:35.701Z,99865.70
2023-03-23T03:48:06.379Z,99864.74
2023-03-23T03:50:36.430Z,99863.39
2023-03-23T03:53:06.958Z,99869.05
2023-03-23T03:55:37.453Z,99848.69
2023-03-23T03:58:07.997Z,99871.64
2023-03-23T04:00:38.478Z,99871.64
2023-03-23T04:03:09.034Z,99871.49
2023-03-23T04:05:39.764Z,99864.86
2023-03-23T04:08:10.092Z,99857.19
2023-03-23T04:10:40.533Z,99878.64
2023-03-23T04:13:11.155Z,99876.69
2023-03-23T04:15:41.714Z,99883.32
2023-03-23T04:18:12.072Z,99868.70
2023-03-23T04:20:42.615Z,99861.28
2023-03-23T04:23:12.856Z,99862.18
2023-03-23T04:25:43.382Z,99859.75
2023-03-23T04:28:13.468Z,99853.00
2023-03-23T04:30:43.961Z,99844.80
2023-03-23T04:33:14.503Z,99844.15
2023-03-23T04:35:45.080Z,99846.28
2023-03-23T04:38:15.527Z,99845.77
2023-03-23T04:40:46.032Z,99841.87
2023-03-23T04:43:16.521Z,99838.90
2023-03-23T04:45:46.774Z,99841.44
2023-03-23T04:48:17.291Z,99840.91
2023-03-23T04:50:47.797Z,99837.12
2023-03-23T04:53:18.388Z,99832.89
2023-03-23T04:55:48.810Z,99830.94
2023-03-23T04:58:19.337Z,99838.64
2023-03-23T05:00:49.837Z,99839.91
2023-03-23T05:03:20.362Z,99825.35
2023-03-23T05:05:50.912Z,99805.34
2023-03-23T05:08:21.380Z,99808.34
2023-03-23T05:10:51.976Z,99803.49
2023-03-23T05:13:22.413Z,99814.53
2023-03-23T05:15:52.643Z,99824.00
2023-03-23T05:18:23.183Z,99823.40
2023-03-23T05:20:53.805Z,99822.41
2023-03-23T05:23:24.226Z,99829.53
2023-03-23T05:25:54.723Z,99836.33
2023-03-23T05:28:25.387Z,99845.58
2023-03-23T05:30:55.770Z,99846.46
2023-03-23T05:33:26.448Z,99846.05
2023-03-23T05:35:56.812Z,99844.13
2023-03-23T05:38:27.401Z,99843.49
2023-03-23T05:40:57.844Z,99845.15
2023-03-23T05:43:28.379Z,99847.12
2023-03-23T05:45:58.870Z,99838.40
2023-03-23T05:48:29.519Z,99840.66
2023-03-23T05:50:59.904Z,99834.42
2023-03-23T05:53:30.472Z,99832.94
2023-03-23T05:56:00.909Z,99836.88
2023-03-23T05:58:31.433Z,99839.00
2023-03-23T06:01:01.927Z,99837.13
2023-03-23T06:03:32.480Z,99838.39
2023-03-23T06:06:02.958Z,99849.83
2023-03-23T06:08:33.488Z,99846.76
2023-03-23T06:11:04.072Z,99845.88
2023-03-23T06:13:34.482Z,99857.70
2023-03-23T06:16:04.979Z,99849.69
2023-03-23T06:18:35.562Z,99864.59
2023-03-23T06:21:06.042Z,99864.35
2023-03-23T06:23:36.613Z,99856.97
2023-03-23T06:26:07.039Z,99850.84
2023-03-23T06:28:37.560Z,99849.66
2023-03-23T06:31:08.048Z,99830.79
2023-03-23T06:33:38.580Z,99837.07
2023-03-23T06:36:09.095Z,99852.18
2023-03-23T06:38:39.597Z,99865.92
2023-03-23T06:41:10.126Z,99863.85
2023-03-23T06:43:40.583Z,99896.97
2023-03-23T06:46:11.048Z,99906.35
2023-03-23T06:48:41.608Z,99892.45
2023-03-23T06:51:11.716Z,99889.17
2023-03-23T06:53:42.257Z,99896.66
2023-03-23T06:56:12.690Z,99890.44
2023-03-23T06:58:43.183Z,99890.93
2023-03-23T07:01:13.657Z,99888.43
2023-03-23T07:03:44.164Z,99885.46
2023-03-23T07:06:14.347Z,99892.23
2023-03-23T07:08:44.861Z,99898.25
2023-03-23T07:11:15.340Z,99922.96
2023-03-23T07:13:45.838Z,99936.86
2023-03-23T07:16:17.972Z,99961.69
2023-03-23T07:18:46.857Z,99973.78
2023-03-23T07:21:17.281Z,99963.15
2023-03-23T07:23:47.813Z,99977.82
2023-03-23T07:26:18.309Z,99980.68
2023-03-23T07:28:48.958Z,99980.87
2023-03-23T07:31:19.350Z,99987.90
2023-03-23T07:33:50.007Z,99985.54
2023-03-23T07:36:20.443Z,99988.48
2023-03-23T07:38:51.189Z,99990.35
2023-03-23T07:41:21.476Z,99987.67
2023-03-23T07:43:52.118Z,99984.40
2023-03-23T07:46:22.544Z,99990.12
2023-03-23T07:48:53.099Z,99983.86
2023-03-23T07:51:23.617Z,99990.18
2023-03-23T07:53:54.190Z,99979.49
2023-03-23T07:56:24.710Z,99988.25
2023-03-23T07:58:55.294Z,99990.77
2023-03-23T08:01:25.789Z,99999.53
2023-03-23T08:03:56.354Z,100002.68
2023-03-23T08:06:26.866Z,100005.80
2023-03-23T08:08:57.420Z,99996.33
2023-03-23T08:11:27.947Z,99992.09
2023-03-23T08:13:58.625Z,99996.50
2023-03-23T08:16:29.026Z,99996.76
2023-03-23T08:18:59.631Z,100000.74
2023-03-23T08:21:30.161Z,100005.91
2023-03-23T08:24:00.696Z,100004.11
2023-03-23T08:26:31.152Z,99999.12
2023-03-23T08:29:01.703Z,100003.60
2023-03-23T08:31:32.220Z,100008.61
2023-03-23T08:34:02.804Z,100003.94
2023-03-23T08:36:33.293Z,100010.40
2023-03-23T08:39:03.688Z,100012.60
2023-03-23T08:41:34.082Z,100025.40
2023-03-23T08:44:04.609Z,100019.09
2023-03-23T08:46:35.129Z,100010.95
2023-03-23T08:49:05.674Z,100018.91
2023-03-23T08:51:36.202Z,100020.65
2023-03-23T08:54:06.753Z,100029.38
2023-03-23T08:56:37.262Z,100029.05
2023-03-23T08:59:07.814Z,100037.25
2023-03-23T09:01:38.325Z,100033.75
2023-03-23T09:04:08.882Z,100033.28
2023-03-23T09:06:39.405Z,100032.12
2023-03-23T09:09:09.962Z,100036.15
2023-03-23T09:11:40.589Z,100038.23
2023-03-23T09:14:11.032Z,100041.59
2023-03-23T09:16:41.545Z,100045.18
2023-03-23T09:19:12.135Z,100049.45
2023-03-23T09:21:42.608Z,100047.30
2023-03-23T09:24:12.823Z,100048.19
2023-03-23T09:26:43.326Z,100056.38
2023-03-23T09:29:13.863Z,100063.27
2023-03-23T09:31:44.355Z,100065.97
2023-03-23T09:34:14.884Z,100065.76
2023-03-23T09:36:45.389Z,100064.63
2023-03-23T09:39:15.948Z,100069.05
2023-03-23T09:41:46.504Z,100078.57
2023-03-23T09:44:17.202Z,100075.74
2023-03-23T09:46:47.441Z,100077.04
2023-03-23T09:49:17.916Z,100080.73
2023-03-23T09:51:48.395Z,100084.40
2023-03-23T09:54:18.944Z,100084.82
2023-03-23T09:56:49.335Z,100085.80
2023-03-23T09:59:19.539Z,100093.87
2023-03-23T10:01:50.112Z,100097.34
2023-03-23T10:04:20.474Z,100098.68
2023-03-23T10:06:50.910Z,100101.59
2023-03-23T10:09:21.388Z,100098.42
2023-03-23T10:11:51.815Z,100094.57
2023-03-23T10:14:22.262Z,100091.62
2023-03-23T10:16:52.695Z,100093.62
2023-03-23T10:19:23.149Z,100090.64
2023-03-23T10:21:53.581Z,100094.81
2023-03-23T10:24:24.082Z,100095.86
2023-03-23T10:26:54.444Z,100089.08
2023-03-23T10:29:24.889Z,100095.09
2023-03-23T10:31:55.305Z,100097.43
2023-03-23T10:34:25.744Z,100105.73
2023-03-23T10:36:56.159Z,100103.89
2023-03-23T10:39:26.659Z,100114.62
2023-03-23T10:41:56.996Z,100114.17
2023-03-23T10:44:27.435Z,100108.03
2023-03-23T10:46:57.818Z,100105.23
2023-03-23T10:49:28.331Z,100103.66
2023-03-23T10:51:58.630Z,100108.21
2023-03-23T10:54:29.046Z,100106.99
2023-03-23T10:57:01.824Z,100107.59
2023-03-23T10:59:29.844Z,100112.31
2023-03-23T11:02:00.262Z,100109.08
2023-03-23T11:04:30.636Z,100113.09
2023-03-23T11:07:01.026Z,100112.83
2023-03-23T11:09:31.454Z,100106.53
2023-03-23T11:12:02.640Z,100104.21
2023-03-23T11:14:32.200Z,100104.97
2023-03-23T11:17:13.843Z,100104.45
2023-03-23T11:19:32.947Z,100102.86
2023-03-23T11:22:03.312Z,100104.61
2023-03-23T11:24:33.431Z,100097.18
2023-03-23T11:27:03.777Z,100095.66
2023-03-23T11:29:34.157Z,100098.77
2023-03-23T11:32:04.579Z,100101.39
2023-03-23T11:34:34.529Z,100098.61
2023-03-23T11:37:04.886Z,100100.56
2023-03-23T11:39:35.348Z,100100.91
2023-03-23T11:42:09.574Z,100103.21
2023-03-23T11:44:36.074Z,100109.12
2023-03-23T11:47:06.417Z,100112.65
2023-03-23T11:49:36.808Z,100116.89
2023-03-23T11:52:07.186Z,100118.40
2023-03-23T11:54:37.612Z,100117.72
2023-03-23T11:57:07.959Z,100117.32
2023-03-23T11:59:38.337Z,100110.95
2023-03-23T12:02:16.967Z,100111.92
2023-03-23T12:04:39.102Z,100105.04
2023-03-23T12:07:09.396Z,100104.38
2023-03-23T12:09:39.799Z,100106.99
2023-03-23T12:12:09.865Z,100103.09
2023-03-23T12:14:40.263Z,100096.24
2023-03-23T12:17:10.627Z,100099.64
2023-03-23T12:19:41.031Z,100087.44
2023-03-23T12:22:11.357Z,100089.42
2023-03-23T12:24:41.764Z,100096.23
2023-03-23T12:27:12.126Z,100102.67
2023-03-23T12:29:42.470Z,100111.87
2023-03-23T12:32:12.829Z,100115.09
2023-03-23T12:34:43.210Z,100116.73
2023-03-23T12:37:13.547Z,100118.23
2023-03-23T12:39:43.954Z,100118.14
2023-03-23T12:42:14.277Z,100115.68
2023-03-23T12:44:44.640Z,100106.34
2023-03-23T12:47:15.021Z,100107.17
2023-03-23T12:49:45.243Z,100108.62
2023-03-23T12:52:15.441Z,100104.61
2023-03-23T12:54:45.841Z,100104.93
2023-03-23T12:57:16.183Z,100102.95
2023-03-23T12:59:46.550Z,100100.12
2023-03-23T13:02:16.909Z,100100.46
2023-03-23T13:04:48.622Z,100092.12
2023-03-23T13:07:17.637Z,100102.01
2023-03-23T13:09:48.028Z,100107.58
2023-03-23T13:12:18.365Z,100115.31
2023-03-23T13:14:48.740Z,100109.92
2023-03-23T13:17:19.094Z,100104.09
2023-03-23T13:19:49.489Z,100106.86
2023-03-23T13:22:19.839Z,100099.38
2023-03-23T13:24:50.254Z,100101.56
2023-03-23T13:27:20.578Z,100100.11
2023-03-23T13:29:51.077Z,100089.67
2023-03-23T13:32:21.395Z,100091.52
2023-03-23T13:34:51.707Z,100090.03
2023-03-23T13:37:22.079Z,100083.62
2023-03-23T13:39:52.472Z,100086.62
2023-03-23T13:42:22.766Z,100087.01
2023-03-23T13:44:53.121Z,100085.46
2023-03-23T13:47:23.456Z,100085.24
2023-03-23T13:49:53.818Z,100076.45
2023-03-23T13:52:24.159Z,100081.34
2023-03-23T13:54:54.542Z,100104.76
2023-03-23T13:57:25.041Z,100112.94
2023-03-23T13:59:55.340Z,100105.70
2023-03-23T14:02:25.614Z,100111.76
2023-03-23T14:04:55.971Z,100109.89
2023-03-23T14:07:26.322Z,100119.45
2023-03-23T14:09:56.786Z,100126.89
2023-03-23T14:12:27.102Z,100124.44
2023-03-23T14:14:57.434Z,100119.33
2023-03-23T14:17:27.799Z,100123.78
2023-03-23T14:19:58.194Z,100122.82
2023-03-23T14:22:28.561Z,100128.56
2023-03-23T14:24:58.972Z,100132.11
2023-03-23T14:27:29.324Z,100133.53
2023-03-23T14:29:59.721Z,100138.02
2023-03-23T14:32:30.080Z,100139.06
2023-03-23T14:35:00.474Z,100147.15
2023-03-23T14:37:30.825Z,100150.43
2023-03-23T14:40:01.227Z,100154.10
2023-03-23T14:42:31.603Z,100144.31
2023-03-23T14:45:01.952Z,100137.74
2023-03-23T14:47:32.307Z,100117.21
2023-03-23T14:50:02.691Z,100111.82
2023-03-23T14:52:33.060Z,100113.49
2023-03-23T14:55:03.552Z,100114.22
2023-03-23T14:57:33.798Z,100123.39
2023-03-23T15:00:04.199Z,100134.37
2023-03-23T15:02:34.531Z,100134.73
2023-03-23T15:05:04.927Z,100135.27
2023-03-23T15:07:35.261Z,100131.22
2023-03-23T15:10:05.648Z,100129.50
2023-03-23T15:12:36.101Z,100135.66
2023-03-23T15:15:06.675Z,100142.11
2023-03-23T15:17:37.349Z,100139.46
2023-03-23T15:20:07.722Z,100133.56
2023-03-23T15:22:38.091Z,100128.64
2023-03-23T15:25:08.510Z,100118.21
2023-03-23T15:27:39.003Z,100105.64
2023-03-23T15:30:09.267Z,100112.82
2023-03-23T15:32:39.632Z,100103.41
2023-03-23T15:35:12.728Z,100091.93
2023-03-23T15:37:40.384Z,100095.64
2023-03-23T15:40:10.810Z,100093.57
2023-03-23T15:42:41.122Z,100092.22
2023-03-23T15:45:11.517Z,100086.89
2023-03-23T15:47:41.861Z,100098.86
2023-03-23T15:50:12.378Z,100101.21
2023-03-23T15:52:42.613Z,100109.73
2023-03-23T15:55:13.014Z,100110.26
2023-03-23T16:00:13.768Z,100112.96
2023-03-23T16:02:44.158Z,100114.04
2023-03-23T16:05:14.608Z,100107.42
2023-03-23T16:07:44.909Z,100100.00
2023-03-23T16:10:15.332Z,100092.65
2023-03-23T16:12:45.684Z,100088.11
2023-03-23T16:15:16.101Z,100087.34
2023-03-23T16:17:46.614Z,100082.60
2023-03-23T16:20:16.926Z,100071.54
2023-03-23T16:22:47.261Z,100070.67
2023-03-23T16:25:17.711Z,100058.51
2023-03-23T16:27:49.337Z,100056.48
2023-03-23T16:30:18.414Z,100063.79
2023-03-23T16:32:48.836Z,100074.73
2023-03-23T16:35:19.219Z,100079.22
2023-03-23T16:37:49.565Z,100083.07
2023-03-23T16:40:20.011Z,100093.79
2023-03-23T16:42:50.356Z,100101.38
2023-03-23T16:45:20.773Z,100097.39
2023-03-23T16:47:51.180Z,100100.42
2023-03-23T16:50:21.545Z,100101.93
2023-03-23T16:52:51.969Z,100102.61
2023-03-23T16:55:22.395Z,100102.98
2023-03-23T16:57:56.195Z,100098.82
2023-03-23T17:00:23.121Z,100090.18
2023-03-23T17:02:53.637Z,100097.93
2023-03-23T17:05:23.910Z,100112.60
2023-03-23T17:07:54.300Z,100122.65
2023-03-23T17:10:24.765Z,100118.51
2023-03-23T17:12:55.109Z,100113.30
2023-03-23T17:15:25.585Z,100124.25
2023-03-23T17:17:56.064Z,100136.60
2023-03-23T17:20:26.353Z,100133.70
2023-03-23T17:22:56.765Z,100133.51
2023-03-23T17:25:27.215Z,100142.75
2023-03-23T17:27:57.635Z,100150.64
2023-03-23T17:30:27.708Z,100145.45
2023-03-23T17:32:58.149Z,100130.35
2023-03-23T17:35:28.593Z,100131.12
2023-03-23T17:37:59.011Z,100133.24
2023-03-23T17:40:29.491Z,100142.53
2023-03-23T17:42:59.852Z,100143.00
2023-03-23T17:45:30.398Z,100136.22
2023-03-23T17:48:00.770Z,100147.25
2023-03-23T17:50:31.203Z,100150.90
2023-03-23T17:53:01.630Z,100148.25
2023-03-23T17:55:32.141Z,100144.70
2023-03-23T17:58:02.554Z,100140.60
2023-03-23T18:00:32.938Z,100137.19
2023-03-23T18:03:03.510Z,100129.89
2023-03-23T18:05:33.833Z,100127.76
2023-03-23T18:08:04.263Z,100126.38
2023-03-23T18:10:34.766Z,100132.44
2023-03-23T18:13:05.201Z,100133.71
2023-03-23T18:15:35.691Z,100123.78
2023-03-23T18:18:06.222Z,100112.21
2023-03-23T18:20:36.657Z,100098.94
2023-03-23T18:23:07.163Z,100095.62
2023-03-23T18:25:37.631Z,100102.93
2023-03-23T18:28:08.066Z,100099.81
2023-03-23T18:30:38.620Z,100097.89
2023-03-23T18:33:09.102Z,100090.92
2023-03-23T18:35:39.473Z,100088.32
2023-03-23T18:38:09.929Z,100088.66
2023-03-23T18:40:40.462Z,100087.43
2023-03-23T18:43:10.911Z,100087.17
2023-03-23T18:45:41.147Z,100084.72
2023-03-23T18:48:11.611Z,100081.00
2023-03-23T18:50:42.276Z,100081.31
2023-03-23T18:53:12.586Z,100083.30
2023-03-23T18:55:43.215Z,100083.04
2023-03-23T18:58:13.518Z,100073.56
2023-03-23T19:00:44.000Z,100068.47
2023-03-23T19:03:14.741Z,100066.60
2023-03-23T19:05:45.206Z,100064.18
2023-03-23T19:08:15.456Z,100060.41
2023-03-23T19:10:45.973Z,100059.94
2023-03-23T19:13:16.416Z,100058.10
2023-03-23T19:15:47.365Z,100055.88
2023-03-23T19:18:17.386Z,100047.05
2023-03-23T19:21:12.690Z,100049.61
2023-03-23T19:23:18.082Z,100053.64
2023-03-23T19:25:48.225Z,100050.69
2023-03-23T19:28:45.411Z,100053.30
2023-03-23T19:30:49.201Z,100045.38
2023-03-23T19:33:19.634Z,100047.89
2023-03-23T19:35:50.528Z,100046.06
2023-03-23T19:38:20.585Z,100044.44
2023-03-23T19:40:51.818Z,100037.74
2023-03-23T19:43:21.650Z,100033.30
2023-03-23T19:45:52.029Z,100030.26
2023-03-23T19:48:22.538Z,100029.91
2023-03-23T19:50:53.037Z,100028.49
2023-03-23T19:53:23.421Z,100030.39
2023-03-23T19:55:53.980Z,100028.17
2023-03-23T19:58:24.978Z,100023.70
2023-03-23T20:00:54.927Z,100030.77
2023-03-23T20:03:26.092Z,100019.84
2023-03-23T20:05:56.858Z,100012.88
2023-03-23T20:08:26.302Z,100011.63
2023-03-23T20:10:56.742Z,100006.94
2023-03-23T20:13:27.165Z,100005.92
2023-03-23T20:16:00.088Z,100004.73
2023-03-23T20:18:29.109Z,99998.36
2023-03-23T20:21:00.296Z,99993.61
2023-03-23T20:23:29.058Z,99993.77
2023-03-23T20:25:59.799Z,99989.13
2023-03-23T20:28:30.044Z,99989.86
2023-03-23T20:31:16.912Z,99985.46
2023-03-23T20:33:30.921Z,99982.41
2023-03-23T20:36:01.423Z,99981.65
2023-03-23T20:38:31.944Z,99977.24
2023-03-23T20:41:02.334Z,99969.20
2023-03-23T20:43:32.776Z,99967.60
2023-03-23T20:46:03.329Z,99966.73
2023-03-23T20:48:33.694Z,99965.39
2023-03-23T20:51:03.904Z,99963.98
2023-03-23T20:53:34.376Z,99960.52
2023-03-23T20:56:04.884Z,99957.23
2023-03-23T20:58:35.353Z,99950.21
2023-03-23T21:01:05.861Z,99943.73
2023-03-23T21:03:37.898Z,99945.26
2023-03-23T21:06:06.846Z,99943.13
2023-03-23T21:08:37.270Z,99940.55
2023-03-23T21:11:07.738Z,99941.34
2023-03-23T21:13:38.189Z,99939.50
2023-03-23T21:16:08.679Z,99937.47
2023-03-23T21:18:39.155Z,99934.00
2023-03-23T21:21:09.619Z,99930.23
2023-03-23T21:23:40.080Z,99922.16
2023-03-23T21:26:10.569Z,99917.83
2023-03-23T21:28:41.009Z,99911.92
2023-03-23T21:31:11.491Z,99908.43
2023-03-23T21:33:42.063Z,99911.18
2023-03-23T21:36:12.423Z,99903.76
2023-03-23T21:38:42.891Z,99897.35
2023-03-23T21:41:13.391Z,99899.16
2023-03-23T21:43:43.545Z,99895.07
2023-03-23T21:46:14.090Z,99889.14
2023-03-23T21:48:44.487Z,99888.40
2023-03-23T21:51:14.972Z,99885.06
2023-03-23T21:53:45.438Z,99883.51
2023-03-23T21:56:15.953Z,99876.97
2023-03-23T21:58:46.393Z,99872.55
2023-03-23T22:01:16.982Z,99870.89
2023-03-23T22:03:47.343Z,99870.72
2023-03-23T22:06:17.814Z,99862.93
2023-03-23T22:08:48.316Z,99865.87
2023-03-23T22:11:18.786Z,99860.60
2023-03-23T22:13:49.210Z,99860.06
2023-03-23T22:16:19.784Z,99859.11
2023-03-23T22:18:49.838Z,99855.33
2023-03-23T22:21:20.260Z,99851.86
2023-03-23T22:23:50.792Z,99848.66
2023-03-23T22:26:21.191Z,99847.26
2023-03-23T22:28:51.648Z,99847.10
2023-03-23T22:31:22.158Z,99846.63
2023-03-23T22:33:52.279Z,99841.87
2023-03-23T22:36:22.808Z,99839.98
2023-03-23T22:38:53.201Z,99838.81
2023-03-23T22:41:23.439Z,99830.03
2023-03-23T22:43:53.859Z,99823.34
2023-03-23T22:46:24.401Z,99820.62
2023-03-23T22:48:54.778Z,99821.08
2023-03-23T22:51:24.912Z,99816.26
2023-03-23T22:53:57.023Z,99809.89
2023-03-23T22:56:25.925Z,99808.23
2023-03-23T22:58:56.338Z,99803.67
2023-03-23T23:01:26.549Z,99802.63
2023-03-23T23:03:57.024Z,99800.59
2023-03-23T23:06:27.166Z,99798.26
2023-03-23T23:08:57.638Z,99786.68
2023-03-23T23:11:28.118Z,99792.12
2023-03-23T23:13:58.652Z,99787.31
2023-03-23T23:16:29.087Z,99780.66
2023-03-23T23:18:59.581Z,99775.96
2023-03-23T23:21:30.025Z,99772.34
2023-03-23T23:24:00.500Z,99762.63
2023-03-23T23:26:30.996Z,99755.84
2023-03-23T23:29:01.460Z,99753.38
2023-03-23T23:31:32.064Z,99749.28
2023-03-23T23:34:02.150Z,99745.14
2023-03-23T23:36:32.609Z,99744.97
2023-03-23T23:39:03.076Z,99740.49
2023-03-23T23:41:33.603Z,99738.64
2023-03-23T23:44:04.177Z,99735.12
2023-03-23T23:46:34.653Z,99735.35
2023-03-23T23:49:05.080Z,99729.80
2023-03-23T23:51:35.643Z,99723.92
2023-03-23T23:54:06.191Z,99727.27
2023-03-23T23:56:36.652Z,99722.33
2023-03-23T23:59:07.231Z,99713.68
